Aérodrome :
LOGIN :

S'inscrire | Disclaimer

   EN    FR    IT 

 










Légende :    VFR   VFR Marginal   IFR   IFR Intensif   IFR Très Intensif
Visi : 
Plafond : 
>= 8 km
>= 3000ft
5 à 8 km
1000 à 3000 ft
1500m à 5 km
500 à 1000 ft
800 à 1500m
200 à 500 ft
< 800m
< 200 ft
Symboles :   Orages  Brouillard  Fortes neiges  Fortes précipitations  Vent > 20 kt
SIGMETs :   Divers  Orages  Givrage  Turbulence  Onde Orograph.  Cendres Volcan.







- Altitude de l'aérodrome : 11 ft
- Code IATA : MJV


LELC - Murcia San Javier

DERNIER METAR :
  • 170400Z AUTO 23003KT 9000 NCD 06/04 Q1016

METARs EXPIRÉS :
  • 170330Z AUTO 25004KT 9000 NCD 06/04 Q1016
  • 170300Z AUTO 26005KT 9999 NCD 06/04 Q1016
  • 170230Z AUTO 26004KT 8000 NCD 06/05 Q1016
  • 170200Z AUTO 26003KT 9000 NSC 06/05 Q1017
  • 170130Z AUTO VRB02KT 9000 NCD 06/05 Q1017

TAF TAF LELC
Valide du 17 à 00h jusqu'au 18 à 00h UTC


162300Z 1700/1724 29008KT 9999 FEW040 TX17/1714Z TN05/1707Z
TEMPO 1714/1721 09010KT
PROB30
TEMPO 1721/1724 RA
Pas de NOTAMs connus pour ce terrain.



MET'MAP, la Météo Aéronautique d'un coup d'oeil ! - Copyright ORBIFLY Décembre 2007 - Disclaimer

ORBIFLY MET'MAP TEAM :

Programmation & Développement : Alexandra Zaïnal
Conception & Développement : Baudouin d'Aumeries
Co-Programmation & Développement : Marc-Olivier Méhu
Soutien technique & logistique : Manuel Goepfert

Contact : metmap@orbifly.com




SOURCES & CREDITS :

   NOAA